createdAt,value
2019-03-31T00:01:55.356Z,11.77
2019-03-31T00:04:24.092Z,10.87
2019-03-31T00:06:52.979Z,12.73
2019-03-31T00:09:22.044Z,15.60
2019-03-31T00:11:50.805Z,11.80
2019-03-31T00:14:19.612Z,13.20
2019-03-31T00:16:48.427Z,12.23
2019-03-31T00:19:17.181Z,12.90
2019-03-31T00:21:46.372Z,12.10
2019-03-31T00:24:15.100Z,11.37
2019-03-31T00:26:43.899Z,13.37
2019-03-31T00:29:12.686Z,14.80
2019-03-31T00:31:41.484Z,14.10
2019-03-31T00:34:10.308Z,11.50
2019-03-31T00:36:39.099Z,11.57
2019-03-31T00:39:08.437Z,11.53
2019-03-31T00:41:37.300Z,10.83
2019-03-31T00:44:06.127Z,14.77
2019-03-31T00:46:34.970Z,19.40
2019-03-31T00:49:04.720Z,10.43
2019-03-31T00:51:33.580Z,10.60
2019-03-31T00:54:02.396Z,10.70
2019-03-31T00:56:31.151Z,11.90
2019-03-31T00:58:59.955Z,12.43
2019-03-31T01:01:37.203Z,10.27
2019-03-31T01:04:07.754Z,14.97
2019-03-31T01:06:37.685Z,14.87
2019-03-31T01:09:19.412Z,12.30
2019-03-31T01:11:48.756Z,11.23
2019-03-31T01:14:17.942Z,12.97
2019-03-31T01:16:46.868Z,11.80
2019-03-31T01:19:16.404Z,11.40
2019-03-31T01:21:45.189Z,10.47
2019-03-31T01:24:14.314Z,11.20
2019-03-31T01:26:43.140Z,18.87
2019-03-31T01:29:13.251Z,10.87
2019-03-31T01:31:50.347Z,14.27
2019-03-31T01:34:13.514Z,12.93
2019-03-31T01:36:42.549Z,15.90
2019-03-31T01:39:11.508Z,10.77
2019-03-31T01:41:40.317Z,12.23
2019-03-31T01:44:09.099Z,17.07
2019-03-31T01:46:38.076Z,13.80
2019-03-31T01:49:06.893Z,16.17
2019-03-31T01:51:35.656Z,11.90
2019-03-31T01:54:04.544Z,14.27
2019-03-31T01:56:33.460Z,11.77
2019-03-31T01:59:02.316Z,13.00
2019-03-31T02:01:31.628Z,11.30
2019-03-31T02:04:00.331Z,12.40
2019-03-31T02:06:29.852Z,14.53
2019-03-31T02:08:59.756Z,12.93
2019-03-31T02:11:28.652Z,13.43
2019-03-31T02:13:57.409Z,14.33
2019-03-31T02:16:26.332Z,12.10
2019-03-31T02:18:55.124Z,12.87
2019-03-31T02:21:23.908Z,16.13
2019-03-31T02:23:52.772Z,12.97
2019-03-31T02:26:21.588Z,14.47
2019-03-31T02:28:50.707Z,16.43
2019-03-31T02:31:19.692Z,11.37
2019-03-31T02:33:48.493Z,17.13
2019-03-31T02:36:17.253Z,18.73
2019-03-31T02:38:46.037Z,13.73
2019-03-31T02:41:14.792Z,17.13
2019-03-31T02:43:43.605Z,19.23
2019-03-31T02:46:12.525Z,20.77
2019-03-31T02:48:41.309Z,14.43
2019-03-31T02:51:10.402Z,15.77
2019-03-31T02:53:39.509Z,14.63
2019-03-31T02:56:08.638Z,15.73
2019-03-31T02:58:38.157Z,15.30
2019-03-31T03:01:07.813Z,17.30
2019-03-31T03:03:39.277Z,16.23
2019-03-31T03:06:10.293Z,16.70
2019-03-31T03:08:41.333Z,15.70
2019-03-31T03:11:13.003Z,17.37
2019-03-31T03:13:43.446Z,20.60
2019-03-31T03:16:19.508Z,17.67
2019-03-31T03:18:48.885Z,17.70
2019-03-31T03:21:17.652Z,20.60
2019-03-31T03:23:46.535Z,16.47
2019-03-31T03:26:15.646Z,18.60
2019-03-31T03:28:44.469Z,18.47
2019-03-31T03:31:16.158Z,19.93
2019-03-31T03:33:44.077Z,17.30
2019-03-31T03:36:13.471Z,16.50
2019-03-31T03:38:42.702Z,20.87
2019-03-31T03:41:11.595Z,20.10
2019-03-31T03:43:54.049Z,19.77
2019-03-31T03:46:10.924Z,17.50
2019-03-31T03:48:39.662Z,19.30
2019-03-31T03:51:08.569Z,20.83
2019-03-31T03:53:37.556Z,19.67
2019-03-31T03:56:06.540Z,19.93
2019-03-31T03:58:35.305Z,17.93
2019-03-31T04:01:06.068Z,19.80
2019-03-31T04:03:34.972Z,17.77
2019-03-31T04:06:03.821Z,24.10
2019-03-31T04:08:32.679Z,22.97
2019-03-31T04:11:07.293Z,19.00
2019-03-31T04:13:36.046Z,16.47
2019-03-31T04:16:04.854Z,22.83
2019-03-31T04:18:33.610Z,15.27
2019-03-31T04:21:02.495Z,14.53
2019-03-31T04:23:31.348Z,18.23
2019-03-31T04:26:00.305Z,24.83
2019-03-31T04:28:29.300Z,18.57
2019-03-31T04:30:58.133Z,23.30
2019-03-31T04:33:27.000Z,19.37
2019-03-31T04:35:55.900Z,19.37
2019-03-31T04:38:24.708Z,18.03
2019-03-31T04:40:53.490Z,20.97
2019-03-31T04:43:22.382Z,21.23
2019-03-31T04:45:51.244Z,26.40
2019-03-31T04:48:20.021Z,20.13
2019-03-31T04:50:51.902Z,23.83
2019-03-31T04:53:19.230Z,22.27
2019-03-31T04:55:48.029Z,21.13
2019-03-31T04:58:16.964Z,22.87
2019-03-31T05:00:45.853Z,24.00
2019-03-31T05:03:14.637Z,17.90
2019-03-31T05:05:43.604Z,19.57
2019-03-31T05:08:12.412Z,18.30
2019-03-31T05:10:41.266Z,21.33
2019-03-31T05:13:10.093Z,20.40
2019-03-31T05:15:38.924Z,18.37
2019-03-31T05:18:07.685Z,21.20
2019-03-31T05:20:36.450Z,22.33
2019-03-31T05:23:05.461Z,21.80
2019-03-31T05:25:34.658Z,24.40
2019-03-31T05:28:03.660Z,25.00
2019-03-31T05:30:32.541Z,23.87
2019-03-31T05:33:01.436Z,27.37
2019-03-31T05:35:31.648Z,23.37
2019-03-31T05:38:00.725Z,28.40
2019-03-31T05:40:30.828Z,32.30
2019-03-31T05:42:59.836Z,27.23
2019-03-31T05:45:28.852Z,26.77
2019-03-31T05:47:57.732Z,23.53
2019-03-31T05:50:26.606Z,26.20
2019-03-31T05:52:55.741Z,27.07
2019-03-31T05:55:24.613Z,26.70
2019-03-31T05:57:53.460Z,26.43
2019-03-31T06:00:35.090Z,26.83
2019-03-31T06:03:03.980Z,32.50
2019-03-31T06:05:32.912Z,26.07
2019-03-31T06:08:01.893Z,25.20
2019-03-31T06:10:30.763Z,30.37
2019-03-31T06:13:01.468Z,27.00
2019-03-31T06:15:30.421Z,25.90
2019-03-31T06:17:59.240Z,22.87
2019-03-31T06:20:28.068Z,31.63
2019-03-31T06:22:56.926Z,26.73
2019-03-31T06:25:25.758Z,29.00
2019-03-31T06:27:54.533Z,24.03
2019-03-31T06:30:23.362Z,32.47
2019-03-31T06:32:55.342Z,34.73
2019-03-31T06:35:22.772Z,36.67
2019-03-31T06:37:52.484Z,42.70
2019-03-31T06:40:21.340Z,44.93
2019-03-31T06:42:50.082Z,37.90
2019-03-31T06:45:19.012Z,39.17
2019-03-31T06:47:47.901Z,45.63
2019-03-31T06:50:17.012Z,39.13
2019-03-31T06:52:45.843Z,42.73
2019-03-31T06:55:14.684Z,40.90
2019-03-31T06:57:43.524Z,51.30
2019-03-31T07:00:14.044Z,53.10
2019-03-31T07:02:42.748Z,44.83
2019-03-31T07:05:11.678Z,42.93
2019-03-31T07:07:40.573Z,43.47
2019-03-31T07:10:09.636Z,39.33
2019-03-31T07:12:38.435Z,40.93
2019-03-31T07:15:08.446Z,45.90
2019-03-31T07:17:37.261Z,35.73
2019-03-31T07:20:07.612Z,34.47
2019-03-31T07:22:36.539Z,25.43
2019-03-31T07:25:07.974Z,36.87
2019-03-31T07:27:37.316Z,30.27
2019-03-31T07:30:11.876Z,31.73
2019-03-31T07:32:42.028Z,40.33
2019-03-31T07:35:18.330Z,38.17
2019-03-31T07:37:47.614Z,31.40
2019-03-31T07:40:17.914Z,27.17
2019-03-31T07:42:47.006Z,40.40
2019-03-31T07:45:16.563Z,29.03
2019-03-31T07:47:46.004Z,29.30
2019-03-31T07:50:17.205Z,26.80
2019-03-31T07:52:46.214Z,27.77
2019-03-31T07:55:16.690Z,31.90
2019-03-31T07:57:45.574Z,28.83
2019-03-31T08:00:20.023Z,27.33
2019-03-31T08:02:49.718Z,24.90
2019-03-31T08:05:32.469Z,20.57
2019-03-31T08:07:49.860Z,29.90
2019-03-31T08:10:18.952Z,18.50
2019-03-31T08:12:47.780Z,23.60
2019-03-31T08:15:17.239Z,19.77
2019-03-31T08:17:46.140Z,27.00
2019-03-31T08:20:17.181Z,24.00
2019-03-31T08:22:46.004Z,15.97
2019-03-31T08:25:15.804Z,20.43
2019-03-31T08:27:44.780Z,20.07
2019-03-31T08:30:16.108Z,20.17
2019-03-31T08:32:45.005Z,16.60
2019-03-31T08:35:13.946Z,19.53
2019-03-31T08:37:42.812Z,21.90
2019-03-31T08:40:12.903Z,17.77
2019-03-31T08:42:41.836Z,24.63
2019-03-31T08:45:11.059Z,12.07
2019-03-31T08:47:39.998Z,13.60
2019-03-31T08:50:10.277Z,12.33
2019-03-31T08:52:39.125Z,20.67
2019-03-31T08:55:08.400Z,12.90
2019-03-31T08:57:37.367Z,13.37
2019-03-31T09:00:10.080Z,11.43
2019-03-31T09:02:38.988Z,14.93
2019-03-31T09:05:09.419Z,11.33
2019-03-31T09:07:41.666Z,11.90
2019-03-31T09:10:10.375Z,12.60
2019-03-31T09:12:39.422Z,11.37
2019-03-31T09:15:09.653Z,11.60
2019-03-31T09:17:38.518Z,14.13
2019-03-31T09:20:08.157Z,9.30
2019-03-31T09:22:37.015Z,10.07
2019-03-31T09:25:06.677Z,12.17
2019-03-31T09:27:35.515Z,11.00
2019-03-31T09:30:07.864Z,13.43
2019-03-31T09:32:36.837Z,12.57
2019-03-31T09:35:08.593Z,11.07
2019-03-31T09:37:37.414Z,9.97
2019-03-31T09:40:08.380Z,16.27
2019-03-31T09:42:37.318Z,11.83
2019-03-31T09:45:07.549Z,10.47
2019-03-31T09:47:37.210Z,10.93
2019-03-31T09:50:11.396Z,13.93
2019-03-31T09:52:40.428Z,12.10
2019-03-31T09:55:11.253Z,11.17
2019-03-31T09:57:40.182Z,8.70
2019-03-31T10:00:14.694Z,9.33
2019-03-31T10:02:43.824Z,7.50
2019-03-31T10:05:13.349Z,9.57
2019-03-31T10:07:42.490Z,8.17
2019-03-31T10:10:17.170Z,11.40
2019-03-31T10:12:46.037Z,7.97
2019-03-31T10:15:14.909Z,11.50
2019-03-31T10:17:43.700Z,7.60
2019-03-31T10:20:12.948Z,9.93
2019-03-31T10:22:41.772Z,7.73
2019-03-31T10:25:13.332Z,7.30
2019-03-31T10:27:41.144Z,9.00
2019-03-31T10:30:09.973Z,5.47
2019-03-31T10:32:38.901Z,10.60
2019-03-31T10:35:09.125Z,7.07
2019-03-31T10:37:37.968Z,11.83
2019-03-31T10:40:09.812Z,7.40
2019-03-31T10:42:38.652Z,15.67
2019-03-31T10:45:08.571Z,12.13
2019-03-31T10:47:37.516Z,10.37
2019-03-31T10:50:08.636Z,10.83
2019-03-31T10:52:37.388Z,12.03
2019-03-31T10:55:06.860Z,11.43
2019-03-31T10:57:35.683Z,13.87
2019-03-31T11:00:06.925Z,9.77
2019-03-31T11:02:35.853Z,12.40
2019-03-31T11:05:07.168Z,7.67
2019-03-31T11:07:36.031Z,12.67
2019-03-31T11:10:08.358Z,13.07
2019-03-31T11:12:37.116Z,12.13
2019-03-31T11:15:07.749Z,12.70
2019-03-31T11:17:36.660Z,9.53
2019-03-31T11:20:07.188Z,8.67
2019-03-31T11:22:52.869Z,11.07
2019-03-31T11:25:25.335Z,9.00
2019-03-31T11:27:52.238Z,14.07
2019-03-31T11:30:23.110Z,12.37
2019-03-31T11:32:51.974Z,9.63
2019-03-31T11:35:20.956Z,13.37
2019-03-31T11:37:51.501Z,13.50
2019-03-31T11:40:20.382Z,11.97
2019-03-31T11:42:50.338Z,9.17
2019-03-31T11:45:19.399Z,10.90
2019-03-31T11:47:48.702Z,10.10
2019-03-31T11:50:18.579Z,8.50
2019-03-31T11:52:47.610Z,10.73
2019-03-31T11:55:16.500Z,13.60
2019-03-31T11:57:45.310Z,9.17
2019-03-31T12:00:17.061Z,10.50
2019-03-31T12:02:45.850Z,11.60
2019-03-31T12:05:15.487Z,11.40
2019-03-31T12:07:47.162Z,8.80
2019-03-31T12:10:14.956Z,7.60
2019-03-31T12:12:45.162Z,8.97
2019-03-31T12:15:14.148Z,7.27
2019-03-31T12:17:42.981Z,10.60
2019-03-31T12:20:12.517Z,6.87
2019-03-31T12:22:42.458Z,15.53
2019-03-31T12:25:11.603Z,8.33
2019-03-31T12:27:40.430Z,7.60
2019-03-31T12:30:09.700Z,8.53
2019-03-31T12:32:38.973Z,7.73
2019-03-31T12:35:08.885Z,5.80
2019-03-31T12:37:42.644Z,6.10
2019-03-31T12:40:15.115Z,7.53
2019-03-31T12:42:42.538Z,5.00
2019-03-31T12:45:11.285Z,7.13
2019-03-31T12:47:40.237Z,5.53
2019-03-31T12:50:09.317Z,9.63
2019-03-31T12:52:46.540Z,25.87
2019-03-31T12:55:08.813Z,9.07
2019-03-31T12:57:37.804Z,5.37
2019-03-31T13:00:08.540Z,6.43
2019-03-31T13:02:37.469Z,6.23
2019-03-31T13:05:06.987Z,6.47
2019-03-31T13:07:37.869Z,7.17
2019-03-31T13:10:06.524Z,6.43
2019-03-31T13:12:35.389Z,3.73
2019-03-31T13:15:06.332Z,10.57
2019-03-31T13:17:35.220Z,4.93
2019-03-31T13:20:06.430Z,9.43
2019-03-31T13:22:35.271Z,6.70
2019-03-31T13:25:05.911Z,6.20
2019-03-31T13:27:36.067Z,5.73
2019-03-31T13:30:08.507Z,5.50
2019-03-31T13:32:37.333Z,6.80
2019-03-31T13:35:08.655Z,3.90
2019-03-31T13:37:37.716Z,7.33
2019-03-31T13:40:07.450Z,9.80
2019-03-31T13:42:36.302Z,4.07
2019-03-31T13:45:06.532Z,4.70
2019-03-31T13:47:35.374Z,3.00
2019-03-31T13:50:08.844Z,4.40
2019-03-31T13:52:37.694Z,6.17
2019-03-31T13:55:09.940Z,3.33
2019-03-31T13:57:40.108Z,4.30
2019-03-31T14:00:11.190Z,4.23
2019-03-31T14:02:40.861Z,7.30
2019-03-31T14:05:09.933Z,3.90
2019-03-31T14:07:40.740Z,4.27
2019-03-31T14:10:09.667Z,5.47
2019-03-31T14:12:38.592Z,4.90
2019-03-31T14:15:18.510Z,6.37
2019-03-31T14:17:38.398Z,5.60
2019-03-31T14:20:08.276Z,5.97
2019-03-31T14:22:37.124Z,3.50
2019-03-31T14:25:06.756Z,2.63
2019-03-31T14:27:35.813Z,2.70
2019-03-31T14:30:06.966Z,4.10
2019-03-31T14:32:35.916Z,4.30
2019-03-31T14:35:05.527Z,3.50
2019-03-31T14:37:34.454Z,5.07
2019-03-31T14:40:03.384Z,2.40
2019-03-31T14:42:32.262Z,5.23
2019-03-31T14:45:02.288Z,4.30
2019-03-31T14:47:31.269Z,5.93
2019-03-31T14:50:01.198Z,1.90
2019-03-31T14:52:30.064Z,2.33
2019-03-31T14:54:59.032Z,2.97
2019-03-31T14:57:27.974Z,2.83
2019-03-31T14:59:56.822Z,4.13
2019-03-31T15:02:25.660Z,3.80
2019-03-31T15:04:54.558Z,2.23
2019-03-31T15:07:24.869Z,2.77
2019-03-31T15:09:53.686Z,3.23
2019-03-31T15:12:22.675Z,3.33
2019-03-31T15:14:51.621Z,2.87
2019-03-31T15:17:20.509Z,1.87
2019-03-31T15:19:49.317Z,1.63
2019-03-31T15:22:19.451Z,3.47
2019-03-31T15:24:48.285Z,1.53
2019-03-31T15:27:17.156Z,1.30
2019-03-31T15:29:45.996Z,2.30
2019-03-31T15:32:14.755Z,6.73
2019-03-31T15:34:43.654Z,2.73
2019-03-31T15:37:12.485Z,4.00
2019-03-31T15:39:41.245Z,9.43
2019-03-31T15:42:10.175Z,1.20
2019-03-31T15:44:39.165Z,2.03
2019-03-31T15:47:07.901Z,6.33
2019-03-31T15:49:38.237Z,3.53
2019-03-31T15:52:08.833Z,3.33
2019-03-31T15:54:37.568Z,6.97
2019-03-31T15:57:06.372Z,3.43
2019-03-31T15:59:35.235Z,8.70
2019-03-31T16:02:04.238Z,4.73
2019-03-31T16:04:33.093Z,0.80
2019-03-31T16:07:01.918Z,4.93
2019-03-31T16:09:30.731Z,3.37
2019-03-31T16:11:59.600Z,6.80
2019-03-31T16:14:28.381Z,6.43
2019-03-31T16:16:57.133Z,6.80
2019-03-31T16:19:25.916Z,3.57
2019-03-31T16:21:56.229Z,3.83
2019-03-31T16:24:26.662Z,3.67
2019-03-31T16:26:55.557Z,2.67
2019-03-31T16:29:24.467Z,2.47
2019-03-31T16:31:53.309Z,3.27
2019-03-31T16:34:22.118Z,1.30
2019-03-31T16:36:50.941Z,4.87
2019-03-31T16:39:19.813Z,3.40
2019-03-31T16:41:48.650Z,2.03
2019-03-31T16:44:17.509Z,3.60
2019-03-31T16:46:46.357Z,2.67
2019-03-31T16:49:16.371Z,3.13
2019-03-31T16:51:45.236Z,6.23
2019-03-31T16:54:14.085Z,1.70
2019-03-31T16:56:43.061Z,3.67
2019-03-31T16:59:11.899Z,7.30
2019-03-31T17:01:40.838Z,4.07
2019-03-31T17:04:09.756Z,2.33
2019-03-31T17:06:38.612Z,2.97
2019-03-31T17:09:08.099Z,5.63
2019-03-31T17:11:37.013Z,3.40
2019-03-31T17:14:05.854Z,3.00
2019-03-31T17:16:34.669Z,3.93
2019-03-31T17:19:03.547Z,4.90
2019-03-31T17:21:32.484Z,3.03
2019-03-31T17:24:01.351Z,4.30
2019-03-31T17:26:30.164Z,5.27
2019-03-31T17:28:58.926Z,4.33
2019-03-31T17:31:27.791Z,1.63
2019-03-31T17:33:56.613Z,3.87
2019-03-31T17:36:25.477Z,2.03
2019-03-31T17:38:54.299Z,3.70
2019-03-31T17:41:23.181Z,6.10
2019-03-31T17:43:52.123Z,3.30
2019-03-31T17:46:20.973Z,2.57
2019-03-31T17:48:49.883Z,3.57
2019-03-31T17:51:18.741Z,4.30
2019-03-31T17:53:47.542Z,2.53
2019-03-31T17:56:16.407Z,7.53
2019-03-31T17:58:45.236Z,2.43
2019-03-31T18:01:14.052Z,6.20
2019-03-31T18:03:43.773Z,7.80
2019-03-31T18:06:12.589Z,5.23
2019-03-31T18:08:42.512Z,4.60
2019-03-31T18:11:11.821Z,6.53
2019-03-31T18:13:40.653Z,4.33
2019-03-31T18:16:09.493Z,10.07
2019-03-31T18:18:38.463Z,5.60
2019-03-31T18:21:07.388Z,7.27
2019-03-31T18:23:36.286Z,3.63
2019-03-31T18:26:05.277Z,3.97
2019-03-31T18:28:34.302Z,10.00
2019-03-31T18:31:03.155Z,2.37
2019-03-31T18:33:32.092Z,9.97
2019-03-31T18:36:00.917Z,9.03
2019-03-31T18:38:29.782Z,4.57
2019-03-31T18:40:58.658Z,7.10
2019-03-31T18:43:27.502Z,4.40
2019-03-31T18:45:56.364Z,6.43
2019-03-31T18:48:25.244Z,2.57
2019-03-31T18:50:54.075Z,5.47
2019-03-31T18:53:33.508Z,4.00
2019-03-31T18:56:19.200Z,6.20
2019-03-31T18:58:58.152Z,8.53
2019-03-31T19:01:34.548Z,5.03
2019-03-31T19:04:21.499Z,4.50
2019-03-31T19:07:10.277Z,6.30
2019-03-31T19:09:52.812Z,3.73
2019-03-31T19:12:23.259Z,3.27
2019-03-31T19:15:10.174Z,4.20
2019-03-31T19:17:49.337Z,3.73
2019-03-31T19:20:36.837Z,5.70
2019-03-31T19:23:23.603Z,3.17
2019-03-31T19:25:56.661Z,2.17
2019-03-31T19:28:33.410Z,4.73
2019-03-31T19:31:02.157Z,4.73
2019-03-31T19:33:32.589Z,7.40
2019-03-31T19:36:08.845Z,11.70
2019-03-31T19:38:39.324Z,12.60
2019-03-31T19:41:15.597Z,11.43
2019-03-31T19:43:46.108Z,13.90
2019-03-31T19:46:31.692Z,8.63
2019-03-31T19:49:07.732Z,10.23
2019-03-31T19:51:46.899Z,10.77
2019-03-31T19:54:23.117Z,13.10
2019-03-31T19:56:53.676Z,6.47
2019-03-31T19:59:29.894Z,3.53
2019-03-31T20:02:18.739Z,5.67
2019-03-31T20:04:54.973Z,4.63
2019-03-31T20:07:31.229Z,2.93
2019-03-31T20:10:01.661Z,2.10
2019-03-31T20:12:43.972Z,4.23
2019-03-31T20:15:31.085Z,1.53
2019-03-31T20:18:17.581Z,2.80
2019-03-31T20:21:04.604Z,3.97
2019-03-31T20:23:51.279Z,2.80
2019-03-31T20:26:30.629Z,2.37
2019-03-31T20:29:06.964Z,8.27
2019-03-31T20:31:37.453Z,1.73
2019-03-31T20:34:07.883Z,1.73
2019-03-31T20:36:50.221Z,5.90
2019-03-31T20:39:20.677Z,4.10
2019-03-31T20:41:51.143Z,4.00
2019-03-31T20:44:20.003Z,4.53
2019-03-31T20:46:48.895Z,5.40
2019-03-31T20:49:17.812Z,3.80
2019-03-31T20:51:46.686Z,3.00
2019-03-31T20:54:15.450Z,1.63
2019-03-31T20:56:44.382Z,6.73
2019-03-31T20:59:13.231Z,10.13
2019-03-31T21:01:42.068Z,11.57
2019-03-31T21:04:10.878Z,9.43
2019-03-31T21:06:39.731Z,22.37
2019-03-31T21:09:09.381Z,38.53
2019-03-31T21:11:38.341Z,35.30
2019-03-31T21:14:07.444Z,34.50
2019-03-31T21:16:36.245Z,23.90
2019-03-31T21:19:05.126Z,26.07
2019-03-31T21:21:33.957Z,20.13
2019-03-31T21:24:02.765Z,9.60
2019-03-31T21:26:31.595Z,12.80
2019-03-31T21:29:00.484Z,14.10
2019-03-31T21:31:29.381Z,9.33
2019-03-31T21:33:58.084Z,8.97
2019-03-31T21:36:26.882Z,6.80
2019-03-31T21:38:55.748Z,5.80
2019-03-31T21:41:24.519Z,3.97
2019-03-31T21:43:54.574Z,2.97
2019-03-31T21:46:23.395Z,4.83
2019-03-31T21:48:52.221Z,1.97
2019-03-31T21:51:21.108Z,4.10
2019-03-31T21:53:50.013Z,5.00
2019-03-31T21:56:18.722Z,5.43
2019-03-31T21:58:47.710Z,2.97
2019-03-31T22:01:16.900Z,2.53
2019-03-31T22:03:45.796Z,2.40
2019-03-31T22:06:14.563Z,2.63
2019-03-31T22:08:43.328Z,1.87
2019-03-31T22:11:12.069Z,3.37
2019-03-31T22:13:41.732Z,8.67
2019-03-31T22:16:10.457Z,7.70
2019-03-31T22:18:39.212Z,6.67
2019-03-31T22:21:08.125Z,3.50
2019-03-31T22:23:37.020Z,4.30
2019-03-31T22:26:05.750Z,4.63
2019-03-31T22:28:34.609Z,5.77
2019-03-31T22:31:03.363Z,5.47
2019-03-31T22:33:32.107Z,5.27
2019-03-31T22:36:18.884Z,7.03
2019-03-31T22:38:47.554Z,3.33
2019-03-31T22:41:16.364Z,4.53
2019-03-31T22:43:45.174Z,4.83
2019-03-31T22:46:13.997Z,4.13
2019-03-31T22:48:42.794Z,1.83
2019-03-31T22:51:11.661Z,1.93
2019-03-31T22:53:40.588Z,3.10
2019-03-31T22:56:10.940Z,4.13
2019-03-31T22:58:39.682Z,1.53
2019-03-31T23:01:08.524Z,4.43
2019-03-31T23:03:37.412Z,8.53
2019-03-31T23:06:06.341Z,7.77
2019-03-31T23:08:35.250Z,4.43
2019-03-31T23:11:04.005Z,2.60
2019-03-31T23:13:33.700Z,6.93
2019-03-31T23:16:02.420Z,5.83
2019-03-31T23:18:31.243Z,2.57
2019-03-31T23:21:00.244Z,8.60
2019-03-31T23:23:29.061Z,6.40
2019-03-31T23:25:57.756Z,5.43
2019-03-31T23:28:26.594Z,2.43
2019-03-31T23:30:55.331Z,2.33
2019-03-31T23:33:24.155Z,2.37
2019-03-31T23:35:52.981Z,6.37
2019-03-31T23:38:21.794Z,2.27
2019-03-31T23:40:50.532Z,6.43
2019-03-31T23:43:19.476Z,5.37
2019-03-31T23:45:48.350Z,2.83
2019-03-31T23:48:17.260Z,1.97
2019-03-31T23:50:46.074Z,3.27
2019-03-31T23:53:14.812Z,5.87
2019-03-31T23:55:43.597Z,4.60
2019-03-31T23:58:12.490Z,2.23
